• Join FlightAware (Why Join?)
  • Login
  • US Flag 
07:08PM EDT


 

Airport Tracker/Info


-or-


 

Live Flight TrackerFlight Track Log ✈ EJA101 ✈ 03-May-2013 ✈ KIAD - KBOS

Flight Track Log - Related Links

Times and Time Zones

All times are in EDT time to prevent confusion due to time zone crossing. See the EJA101 flight status page for this flight to view local times or setup timezone preferences in your user account.

Time Position Orientation Groundspeed Altitude Reporting Facility
EDT Latitude Longitude Course Direction KTS MPH feet Rate Location/Type
05:32PM 38.9167 -77.5000 284° West 252 290 3,100  Level Potomac TRACON
05:33PM 38.9333 -77.5833 284° West 280 322 3,800 2,760 Climbing Potomac TRACON
05:34PM 39.0000 -77.6167 339° North 286 329 8,400 2,520 Climbing Potomac TRACON
05:35PM 39.0667 -77.5667 30° Northeast 302 348 9,000 300 Climbing Potomac TRACON
05:36PM 39.1333 -77.5000 38° Northeast 291 335 9,000  Level Potomac TRACON
05:37PM 39.2000 -77.4333 38° Northeast 285 328 9,000 360 Level Potomac TRACON
05:38PM 39.2333 -77.3500 63° Northeast 282 325 9,800 1,560 Climbing Potomac TRACON
05:41PM 39.3058 -77.1258 67° East 334 384 14,000 1,620 Climbing Washington Center
05:41PM 39.3367 -77.0031 72° East 344 396 15,000 1,080 Climbing Washington Center
05:42PM 39.3172 -76.8739 101° East 345 397 16,200 960 Climbing Washington Center
05:44PM 39.3017 -76.7450 99° East 350 403 17,000 840 Climbing Washington Center
05:45PM 39.2822 -76.6131 101° East 362 417 18,000 2,040 Climbing Washington Center
05:45PM 39.2644 -76.4681 99° East 383 441 21,100 2,520 Climbing Washington Center
05:46PM 39.2447 -76.3178 100° East 402 463 23,000 1,860 Climbing Washington Center
05:47PM 39.2247 -76.1675 100° East 416 479 24,900 2,280 Climbing Washington Center
05:49PM 39.2753 -76.0286 65° Northeast 421 484 27,700 2,460 Climbing Washington Center
05:50PM 39.3817 -75.9433 32° Northeast 396 456 30,000 2,340 Climbing Washington Center
05:51PM 39.4736 -75.8281 44° Northeast 421 484 32,500 1,500 Climbing Washington Center
05:51PM 39.5511 -75.6883 54° Northeast 453 521 33,000 120 Climbing Washington Center
05:54PM 39.7056 -75.4067 54° Northeast 436 502 33,000 -60 Level New York Center
05:55PM 39.7883 -75.2608 54° Northeast 437 503 32,900  Descending New York Center
05:56PM 39.8558 -75.1272 57° Northeast 467 537 33,000  Climbing New York Center
05:57PM 39.9361 -74.9889 53° Northeast 480 552 33,000 -60 Level New York Center
05:58PM 40.0094 -74.8578 54° Northeast 490 564 32,900  Descending New York Center
05:59PM 40.0958 -74.7081 53° Northeast 476 548 33,000  Climbing New York Center
06:00PM 40.1694 -74.5603 57° Northeast 476 548 33,000  Level New York Center
06:01PM 40.2697 -74.4242 46° Northeast 475 547 33,000 -240 Level New York Center
06:02PM 40.3608 -74.3011 46° Northeast 467 537 32,600 -1,680 Descending New York Center
06:03PM 40.4011 -74.1394 72° East 455 524 29,700 -2,880 Descending New York Center
06:04PM 40.4406 -73.9889 71° East 449 517 27,000 -2,820 Descending New York Center
06:05PM 40.4800 -73.8406 71° East 438 504 24,100 -1,500 Descending New York Center
06:06PM 40.5575 -73.6967 55° Northeast 409 471 23,300 -480 Descending Boston Center
06:07PM 40.6667 -73.6003 34° Northeast 386 444 23,000 -180 Descending Boston Center
06:08PM 40.7592 -73.5197 33° Northeast 391 450 23,000  Level Boston Center
06:09PM 40.8517 -73.4444 32° Northeast 391 450 23,000  Level Boston Center
06:10PM 40.9319 -73.3275 48° Northeast 381 438 23,000  Level Boston Center
06:11PM 40.9931 -73.2044 57° Northeast 383 441 23,000  Level Boston Center
06:12PM 41.0522 -73.0814 57° Northeast 393 452 23,000  Level Boston Center
06:13PM 41.1133 -72.9581 57° Northeast 393 452 23,000  Level Boston Center
06:14PM 41.1742 -72.8372 56° Northeast 393 452 23,000  Level Boston Center
06:15PM 41.2331 -72.7161 57° Northeast 393 452 23,000  Level Boston Center
06:16PM 41.2833 -72.5947 61° Northeast 401 461 23,000 -60 Level Boston Center
06:17PM 41.3397 -72.4539 62° Northeast 401 461 22,900 -600 Descending Boston Center
06:18PM 41.3833 -72.3322 64° Northeast 381 438 21,800 -1,200 Descending Boston Center
06:19PM 41.4269 -72.2214 62° Northeast 357 411 20,500 -1,380 Descending Boston Center
06:20PM 41.4725 -72.1050 62° Northeast 343 395 19,100 -1,380 Descending Boston Center
06:21PM 41.5178 -71.9853 63° Northeast 349 402 17,800 -1,440 Descending Boston Center
06:22PM 41.5569 -71.8825 63° Northeast 343 395 16,300 -1,500 Descending Boston Center
06:23PM 41.6022 -71.7600 64° Northeast 343 395 14,800 -1,320 Descending Boston Center
06:24PM 41.6369 -71.6650 64° Northeast 323 372 13,700 -1,200 Descending Boston Center
06:25PM 41.6758 -71.5564 64° Northeast 289 333 12,500 -1,140 Descending Boston Center
06:26PM 41.7086 -71.4781 61° Northeast 271 312 11,500 -840 Descending Boston Center
06:27PM 41.7556 -71.3856 56° Northeast 260 299 10,900 -300 Descending Boston Center
06:28PM 41.8050 -71.3206 44° Northeast 260 299 10,900 -300 Level Boston Center
06:29PM 41.8647 -71.2497 41° Northeast 265 305 10,400 -1,260 Descending Boston Center
06:30PM 41.9269 -71.2178 21° North 260 299 8,400 -2,040 Descending Boston Center
06:31PM 42.0017 -71.1831 19° North 260 299 6,400 -1,800 Descending Boston Center
06:32PM 42.0617 -71.1536 20° North 255 293 4,800 -1,200 Descending Boston Center
06:33PM 42.1239 -71.1217 21° North 229 264 4,100 -420 Descending Boston Center
06:34PM 42.1736 -71.0956 21° North 208 239 4,000 -600 Descending Boston Center
06:35PM 42.2233 -71.0719 19° North 184 212 2,900 -1,020 Descending Boston Center
06:36PM 42.2667 -71.0500 21° North 146 168 1,800 -780 Descending KA90
06:37PM 42.3000 -71.0333 20° North 111 128 1,200 -660 Descending KA90
06:38PM 42.3333 -71.0167 20° North 110 127 500 -720 Descending KA90
06:41PM 42.3500 -71.0000 North  Level FlightAware Approximate